createdAt,value
2019-04-16T00:04:06.364Z,40.97
2019-04-16T00:09:11.486Z,41.00
2019-04-16T00:14:16.619Z,41.00
2019-04-16T00:19:20.169Z,41.02
2019-04-16T00:24:34.504Z,41.01
2019-04-16T00:29:39.644Z,41.00
2019-04-16T00:34:44.787Z,41.01
2019-04-16T00:39:48.390Z,41.01
2019-04-16T00:44:51.937Z,41.07
2019-04-16T00:49:58.792Z,41.04
2019-04-16T00:55:00.623Z,41.08
2019-04-16T01:00:05.978Z,41.08
2019-04-16T01:05:09.453Z,41.09
2019-04-16T01:10:12.993Z,41.07
2019-04-16T01:15:16.464Z,41.11
2019-04-16T01:20:19.948Z,41.10
2019-04-16T01:25:24.044Z,41.10
2019-04-16T01:30:29.221Z,41.11
2019-04-16T01:35:40.496Z,41.09
2019-04-16T01:40:47.326Z,41.12
2019-04-16T01:45:50.810Z,41.14
2019-04-16T01:50:54.354Z,41.13
2019-04-16T01:55:57.825Z,41.15
2019-04-16T02:01:01.309Z,41.17
2019-04-16T02:06:04.857Z,41.15
2019-04-16T02:11:10.657Z,41.13
2019-04-16T02:16:13.542Z,41.15
2019-04-16T02:21:17.027Z,41.17
2019-04-16T02:26:23.385Z,41.18
2019-04-16T02:31:25.669Z,41.17
2019-04-16T02:36:29.131Z,41.18
2019-04-16T02:41:32.595Z,41.19
2019-04-16T02:46:36.048Z,41.19
2019-04-16T02:51:47.231Z,41.20
2019-04-16T02:56:58.178Z,41.21
2019-04-16T03:02:22.704Z,41.24
2019-04-16T03:07:24.739Z,41.27
2019-04-16T03:12:28.213Z,41.26
2019-04-16T03:17:35.788Z,41.27
2019-04-16T03:22:39.270Z,41.30
2019-04-16T03:27:42.749Z,41.33
2019-04-16T03:32:50.209Z,41.32
2019-04-16T03:37:53.638Z,41.35
2019-04-16T03:42:59.384Z,41.34
2019-04-16T03:48:02.288Z,41.45
2019-04-16T03:53:05.746Z,41.45
2019-04-16T03:58:09.205Z,41.43
2019-04-16T04:03:12.669Z,41.51
2019-04-16T04:08:17.942Z,41.52
2019-04-16T04:13:21.677Z,41.55
2019-04-16T04:18:25.136Z,41.56
2019-04-16T04:23:29.439Z,41.60
2019-04-16T04:28:33.034Z,41.60
2019-04-16T04:33:41.626Z,41.63
2019-04-16T04:38:44.321Z,41.64
2019-04-16T04:43:47.785Z,41.65
2019-04-16T04:48:54.976Z,41.66
2019-04-16T04:53:56.429Z,41.65
2019-04-16T04:59:02.533Z,41.65
2019-04-16T05:04:22.541Z,41.64
2019-04-16T05:09:29.163Z,41.63
2019-04-16T05:14:31.181Z,41.63
2019-04-16T05:19:34.642Z,41.63
2019-04-16T05:24:38.102Z,41.63
2019-04-16T05:29:41.555Z,41.62
2019-04-16T05:34:45.012Z,41.65
2019-04-16T05:39:48.483Z,41.62
2019-04-16T05:44:51.931Z,41.63
2019-04-16T05:49:57.885Z,41.61
2019-04-16T05:55:02.219Z,41.60
2019-04-16T06:00:10.446Z,41.59
2019-04-16T06:05:14.348Z,41.58
2019-04-16T06:10:19.228Z,41.57
2019-04-16T06:15:30.646Z,41.59
2019-04-16T06:20:35.748Z,41.61
2019-04-16T06:25:49.801Z,41.52
2019-04-16T06:30:57.421Z,41.52
2019-04-16T06:36:02.540Z,41.65
2019-04-16T06:41:19.447Z,41.71
2019-04-16T06:46:42.541Z,41.78
2019-04-16T06:51:47.661Z,41.84
2019-04-16T06:57:12.234Z,41.84
2019-04-16T07:02:32.809Z,41.84
2019-04-16T07:07:54.087Z,41.82
2019-04-16T07:12:57.546Z,41.79
2019-04-16T07:18:02.581Z,41.60
2019-04-16T07:23:06.190Z,41.42
2019-04-16T07:28:28.042Z,40.95
2019-04-16T07:33:33.112Z,40.60
2019-04-16T07:38:40.925Z,40.21
2019-04-16T07:44:04.516Z,39.79
2019-04-16T07:49:13.887Z,39.42
2019-04-16T07:54:37.032Z,39.00
2019-04-16T07:59:40.488Z,38.66
2019-04-16T08:04:43.949Z,38.35
2019-04-16T08:09:47.408Z,37.96
2019-04-16T08:14:50.872Z,37.70
2019-04-16T08:19:55.570Z,37.41
2019-04-16T08:25:03.442Z,37.19
2019-04-16T08:30:09.373Z,36.97
2019-04-16T08:35:12.972Z,36.81
2019-04-16T08:40:16.429Z,36.71
2019-04-16T08:45:20.806Z,36.58
2019-04-16T08:50:26.132Z,36.44
2019-04-16T08:55:29.605Z,33.17
2019-04-16T09:00:33.902Z,25.49
2019-04-16T09:05:41.299Z,24.49
2019-04-16T09:10:44.584Z,24.95
2019-04-16T09:15:47.725Z,25.08
2019-04-16T09:20:51.188Z,24.68
2019-04-16T09:26:13.686Z,24.68
2019-04-16T09:31:22.156Z,24.46
2019-04-16T09:36:28.158Z,24.55
2019-04-16T09:41:35.900Z,24.59
2019-04-16T09:46:51.083Z,23.61
2019-04-16T09:51:44.568Z,23.54
2019-04-16T09:56:48.032Z,24.08
2019-04-16T10:01:53.129Z,24.71
2019-04-16T10:06:56.617Z,25.12
2019-04-16T10:12:00.069Z,25.29
2019-04-16T10:17:05.165Z,25.60
2019-04-16T10:22:08.632Z,26.06
2019-04-16T10:27:13.805Z,26.63
2019-04-16T10:32:18.393Z,26.71
2019-04-16T10:37:22.218Z,26.91
2019-04-16T10:42:43.558Z,27.13
2019-04-16T10:47:48.675Z,27.19
2019-04-16T10:53:09.874Z,27.54
2019-04-16T10:58:30.927Z,27.38
2019-04-16T11:03:36.020Z,27.43
2019-04-16T11:08:39.490Z,27.88
2019-04-16T11:13:58.369Z,27.84
2019-04-16T11:18:49.764Z,27.51
2019-04-16T11:23:53.266Z,26.88
2019-04-16T11:28:56.715Z,27.01
2019-04-16T11:34:00.215Z,27.43
2019-04-16T11:39:05.617Z,27.88
2019-04-16T11:44:15.653Z,28.32
2019-04-16T11:49:14.333Z,28.67
2019-04-16T11:54:17.816Z,29.27
2019-04-16T11:59:21.277Z,29.96
2019-04-16T12:04:29.124Z,30.57
2019-04-16T12:09:52.056Z,31.02
2019-04-16T12:15:09.230Z,31.38
2019-04-16T12:20:20.410Z,31.64
2019-04-16T12:25:31.491Z,31.91
2019-04-16T12:30:36.589Z,32.32
2019-04-16T12:35:47.670Z,32.55
2019-04-16T12:40:55.453Z,32.78
2019-04-16T12:46:16.781Z,32.97
2019-04-16T12:51:31.205Z,33.15
2019-04-16T12:56:48.160Z,33.29
2019-04-16T13:02:02.149Z,33.42
2019-04-16T13:07:10.523Z,33.51
2019-04-16T13:12:21.343Z,33.56
2019-04-16T13:17:29.453Z,33.56
2019-04-16T13:22:34.553Z,33.61
2019-04-16T13:27:39.651Z,33.63
2019-04-16T13:32:43.113Z,33.60
2019-04-16T13:37:46.570Z,33.49
2019-04-16T13:42:50.027Z,33.63
2019-04-16T13:47:56.007Z,33.96
2019-04-16T13:53:03.984Z,34.36
2019-04-16T13:58:14.807Z,34.73
2019-04-16T14:03:20.874Z,35.05
2019-04-16T14:08:25.116Z,35.39
2019-04-16T14:13:28.574Z,35.72
2019-04-16T14:18:32.702Z,35.90
2019-04-16T14:23:36.873Z,36.23
2019-04-16T14:28:52.040Z,36.23
2019-04-16T14:33:49.581Z,36.00
2019-04-16T14:39:07.820Z,35.86
2019-04-16T14:44:12.853Z,35.83
2019-04-16T14:49:18.324Z,35.78
2019-04-16T14:54:28.811Z,35.83
2019-04-16T14:59:50.268Z,35.88
2019-04-16T15:05:04.304Z,35.85
2019-04-16T15:10:24.943Z,35.84
2019-04-16T15:15:39.166Z,35.88
2019-04-16T15:20:53.190Z,35.95
2019-04-16T15:26:10.204Z,35.98
2019-04-16T15:31:18.007Z,36.03
2019-04-16T15:36:41.290Z,36.10
2019-04-16T15:41:46.388Z,36.14
2019-04-16T15:47:07.489Z,36.19
2019-04-16T15:52:15.282Z,36.19
2019-04-16T15:57:29.331Z,36.16
2019-04-16T16:02:37.356Z,36.10
2019-04-16T16:07:42.454Z,36.10
2019-04-16T16:12:45.918Z,36.20
2019-04-16T16:17:49.779Z,36.32
2019-04-16T16:22:54.619Z,36.45
2019-04-16T16:27:58.461Z,36.62
2019-04-16T16:33:01.938Z,36.79
2019-04-16T16:38:05.980Z,36.90
2019-04-16T16:43:09.459Z,36.93
2019-04-16T16:48:13.382Z,37.02
2019-04-16T16:53:18.505Z,37.18
2019-04-16T16:58:40.227Z,37.26
2019-04-16T17:03:52.687Z,37.36
2019-04-16T17:08:56.370Z,37.43
2019-04-16T17:14:02.263Z,37.50
2019-04-16T17:19:05.043Z,37.57
2019-04-16T17:24:08.523Z,37.61
2019-04-16T17:29:12.004Z,37.63
2019-04-16T17:34:15.485Z,37.68
2019-04-16T17:39:20.596Z,37.72
2019-04-16T17:44:34.753Z,37.77
2019-04-16T17:49:48.953Z,37.79
2019-04-16T17:55:06.260Z,37.82
2019-04-16T18:00:28.257Z,37.85
2019-04-16T18:05:36.306Z,37.86
2019-04-16T18:10:45.369Z,37.88
2019-04-16T18:15:56.433Z,37.89
2019-04-16T18:21:17.869Z,37.92
2019-04-16T18:26:28.406Z,37.95
2019-04-16T18:31:33.506Z,38.00
2019-04-16T18:36:47.561Z,38.01
2019-04-16T18:41:58.645Z,38.04
2019-04-16T18:47:06.543Z,38.08
2019-04-16T18:52:10.020Z,38.11
2019-04-16T18:57:13.541Z,38.14
2019-04-16T19:02:17.004Z,38.15
2019-04-16T19:07:20.735Z,38.17
2019-04-16T19:12:24.199Z,38.19
2019-04-16T19:17:27.657Z,38.24
2019-04-16T19:22:31.118Z,38.27
2019-04-16T19:27:34.685Z,38.32
2019-04-16T19:32:38.154Z,38.36
2019-04-16T19:37:41.605Z,38.39
2019-04-16T19:42:45.066Z,38.43
2019-04-16T19:47:48.524Z,38.43
2019-04-16T19:52:51.989Z,38.45
2019-04-16T19:57:56.984Z,38.45
2019-04-16T20:03:00.636Z,38.46
2019-04-16T20:08:04.097Z,38.42
2019-04-16T20:13:07.558Z,38.44
2019-04-16T20:18:11.018Z,38.43
2019-04-16T20:23:14.476Z,38.45
2019-04-16T20:28:17.935Z,38.40
2019-04-16T20:33:21.392Z,38.42
2019-04-16T20:38:28.984Z,38.40
2019-04-16T20:43:30.042Z,38.41
2019-04-16T20:48:33.507Z,38.43
2019-04-16T20:53:38.011Z,38.41
2019-04-16T20:58:42.229Z,38.46
2019-04-16T21:03:47.345Z,38.50
2019-04-16T21:08:50.897Z,38.51
2019-04-16T21:13:56.365Z,38.54
2019-04-16T21:18:59.919Z,38.57
2019-04-16T21:24:06.867Z,38.60
2019-04-16T21:29:10.199Z,38.63
2019-04-16T21:34:18.451Z,38.65
2019-04-16T21:39:35.695Z,38.69
2019-04-16T21:44:41.343Z,38.70
2019-04-16T21:49:45.786Z,38.76
2019-04-16T21:54:49.400Z,38.78
2019-04-16T21:59:56.666Z,38.78
2019-04-16T22:04:58.252Z,38.83
2019-04-16T22:10:02.151Z,38.88
2019-04-16T22:15:07.388Z,38.93
2019-04-16T22:20:10.785Z,38.95
2019-04-16T22:25:14.251Z,39.01
2019-04-16T22:30:19.396Z,39.04
2019-04-16T22:35:22.890Z,39.08
2019-04-16T22:40:30.773Z,39.10
2019-04-16T22:45:44.569Z,39.11
2019-04-16T22:50:48.031Z,39.13
2019-04-16T22:55:56.484Z,39.15
2019-04-16T23:01:01.439Z,39.17
2019-04-16T23:06:06.387Z,39.18
2019-04-16T23:11:10.024Z,39.19
2019-04-16T23:16:13.486Z,39.20
2019-04-16T23:21:16.942Z,39.21
2019-04-16T23:26:20.397Z,39.21
2019-04-16T23:31:23.852Z,39.23
2019-04-16T23:36:27.308Z,39.26
2019-04-16T23:41:30.770Z,39.26
2019-04-16T23:46:47.517Z,39.29
2019-04-16T23:52:08.522Z,39.30
2019-04-16T23:57:16.508Z,39.35
